Woodbury, Connecticut
Current Conditions -  °F | °C
As of 11:45 AM on Wednesday 26 Nov 2014 (Local Time) from KOXC Reporting Station
Light Snow Light Snow  
Wind Chill: 25°   Ceiling: 300
Heat Index: 34°   Visibility: 0.75mi
Dew Point: 27°   Wind: 12mph
Humidity: 75%   Direction: 50°NE
Pressure: 30.05"   Gusts: 25mph
Location:  41.54°N, 73.21°W
Report Text: KOXC 261645Z 05010G22KT 3/4SM 1/2V1 -SN BR OVC003 01/M03 A3005 RMK PRESFR
Loading
Personal Weather Stations






























Interactive Weather Map New forecast layout! Learn more

10-Day Weather Forecast

Advertisements
Track Severe Weather on mobile